createdAt,value
2022-11-05T00:00:06.882Z,14.1
2022-11-05T00:05:08.721Z,12.1
2022-11-05T00:10:07.803Z,12.9
2022-11-05T00:15:06.882Z,11.7
2022-11-05T00:20:06.737Z,12.6
2022-11-05T00:25:06.724Z,17.2
2022-11-05T00:30:06.745Z,16.6
2022-11-05T00:35:06.623Z,19.6
2022-11-05T00:40:06.575Z,35.8
2022-11-05T00:45:06.453Z,26.9
2022-11-05T00:50:06.489Z,24.8
2022-11-05T00:55:06.329Z,25.1
2022-11-05T01:00:07.029Z,23.3
2022-11-05T01:05:06.435Z,30.9
2022-11-05T01:10:06.425Z,36.3
2022-11-05T01:15:06.368Z,34.2
2022-11-05T01:20:06.357Z,33
2022-11-05T01:25:06.418Z,30.3
2022-11-05T01:30:06.475Z,28.1
2022-11-05T01:35:06.456Z,25.3
2022-11-05T01:40:07.223Z,25.8
2022-11-05T01:45:06.303Z,19.1
2022-11-05T01:50:07.205Z,18.6
2022-11-05T01:55:06.557Z,17
2022-11-05T02:00:07.230Z,17.1
2022-11-05T02:05:06.663Z,16.7
2022-11-05T02:10:06.600Z,17.1
2022-11-05T02:15:06.556Z,16.3
2022-11-05T02:20:07.219Z,13.4
2022-11-05T02:25:06.636Z,15.1
2022-11-05T02:30:06.341Z,14.1
2022-11-05T02:35:06.739Z,10.9
2022-11-05T02:40:06.660Z,12.2
2022-11-05T02:45:06.545Z,11.6
2022-11-05T02:50:06.749Z,11.9
2022-11-05T02:55:06.337Z,14.1
2022-11-05T03:00:06.465Z,11.9
2022-11-05T03:05:06.377Z,12.7
2022-11-05T03:10:06.549Z,10.7
2022-11-05T03:15:06.551Z,10.6
2022-11-05T03:20:07.091Z,10.7
2022-11-05T03:25:06.285Z,11.9
2022-11-05T03:30:06.302Z,12.8
2022-11-05T03:35:06.616Z,13
2022-11-05T03:40:07.152Z,11.7
2022-11-05T03:45:06.560Z,10.1
2022-11-05T03:50:06.966Z,11.7
2022-11-05T03:55:06.499Z,12.5
2022-11-05T04:00:07.156Z,12.6
2022-11-05T04:05:06.798Z,11.8
2022-11-05T04:10:06.827Z,11.6
2022-11-05T04:15:06.832Z,11.8
2022-11-05T04:20:06.899Z,12.6
2022-11-05T04:25:06.771Z,11.7
2022-11-05T04:30:06.930Z,14.9
2022-11-05T04:35:06.924Z,12.5
2022-11-05T04:40:06.789Z,13.6
2022-11-05T04:45:06.970Z,11
2022-11-05T04:50:07.024Z,13.2
2022-11-05T04:55:07.131Z,13
2022-11-05T05:00:07.236Z,12.5
2022-11-05T05:05:07.010Z,13
2022-11-05T05:10:07.158Z,14.1
2022-11-05T05:15:06.258Z,11.9
2022-11-05T05:20:07.228Z,15.8
2022-11-05T05:25:07.071Z,11.4
2022-11-05T05:30:07.064Z,12.3
2022-11-05T05:35:06.952Z,14.4
2022-11-05T05:40:06.835Z,12.5
2022-11-05T05:45:06.940Z,16.2
2022-11-05T05:50:06.934Z,14.1
2022-11-05T05:55:06.867Z,13.4
2022-11-05T06:00:06.946Z,14.5
2022-11-05T06:05:06.312Z,12.2
2022-11-05T06:10:06.289Z,14.3
2022-11-05T06:15:06.338Z,12.4
2022-11-05T06:20:06.610Z,13.4
2022-11-05T06:25:06.791Z,15.3
2022-11-05T06:30:06.479Z,13.7
2022-11-05T06:35:06.655Z,13.5
2022-11-05T06:40:06.632Z,14.8
2022-11-05T06:45:06.509Z,15
2022-11-05T06:50:06.481Z,13.1
2022-11-05T06:55:06.387Z,13.9
2022-11-05T07:00:06.463Z,16.2
2022-11-05T07:05:07.121Z,13.2
2022-11-05T07:10:06.367Z,13
2022-11-05T07:15:06.351Z,14.1
2022-11-05T07:20:07.181Z,16.6
2022-11-05T07:25:07.197Z,13.9
2022-11-05T07:30:07.221Z,12.5
2022-11-05T07:35:07.204Z,13.5
2022-11-05T07:40:07.111Z,14.6
2022-11-05T07:45:07.028Z,14.4
2022-11-05T07:50:07.343Z,14.7
2022-11-05T07:55:07.190Z,12.3
2022-11-05T08:00:07.280Z,13.1
2022-11-05T08:05:06.830Z,12.6
2022-11-05T08:10:06.938Z,14.2
2022-11-05T08:15:06.956Z,14.6
2022-11-05T08:20:07.054Z,10.8
2022-11-05T08:25:06.965Z,12.5
2022-11-05T08:30:06.851Z,12.5
2022-11-05T08:35:06.737Z,11.7
2022-11-05T08:40:06.831Z,12.1
2022-11-05T08:45:06.691Z,15
2022-11-05T08:50:06.677Z,14.7
2022-11-05T08:55:06.684Z,14.5
2022-11-05T09:00:06.814Z,13
2022-11-05T09:05:06.481Z,13
2022-11-05T09:10:06.512Z,13.4
2022-11-05T09:15:06.438Z,12.6
2022-11-05T09:20:06.543Z,14
2022-11-05T09:25:06.580Z,13.8
2022-11-05T09:30:06.515Z,12.6
2022-11-05T09:35:06.586Z,13.9
2022-11-05T09:40:06.594Z,15.1
2022-11-05T09:45:06.418Z,14.3
2022-11-05T09:50:06.538Z,16.1
2022-11-05T09:55:06.679Z,13.4
2022-11-05T10:00:06.609Z,14.2
2022-11-05T10:05:07.179Z,14.4
2022-11-05T10:10:06.453Z,19.1
2022-11-05T10:15:06.826Z,13.8
2022-11-05T10:20:06.778Z,14
2022-11-05T10:25:06.582Z,14.3
2022-11-05T10:30:06.961Z,14.5
2022-11-05T10:35:06.749Z,14.9
2022-11-05T10:40:06.839Z,14.8
2022-11-05T10:45:06.855Z,16
2022-11-05T10:50:06.257Z,15.6
2022-11-05T10:55:07.210Z,16.7
2022-11-05T11:00:06.441Z,16.6
2022-11-05T11:05:07.142Z,17.1
2022-11-05T11:10:06.304Z,15.1
2022-11-05T11:15:06.526Z,20.1
2022-11-05T11:20:06.429Z,32.5
2022-11-05T11:25:06.255Z,28.5
2022-11-05T11:30:07.199Z,26.3
2022-11-05T11:35:06.224Z,21.7
2022-11-05T11:40:06.639Z,17.7
2022-11-05T11:45:06.326Z,19.5
2022-11-05T11:50:06.759Z,19.4
2022-11-05T11:55:06.818Z,19.4
2022-11-05T12:00:06.854Z,17.8
2022-11-05T12:05:06.754Z,18.2
2022-11-05T12:10:06.926Z,22
2022-11-05T12:15:06.232Z,20.6
2022-11-05T12:20:06.654Z,15.1
2022-11-05T12:25:06.617Z,15.5
2022-11-05T12:30:06.492Z,12.3
2022-11-05T12:35:06.329Z,12.5
2022-11-05T12:40:06.579Z,11.1
2022-11-05T12:45:07.040Z,11.7
2022-11-05T12:50:06.514Z,12.9
2022-11-05T12:55:06.519Z,11.9
2022-11-05T13:00:06.842Z,9.8
2022-11-05T13:05:07.094Z,10
2022-11-05T13:10:06.485Z,9.7
2022-11-05T13:15:06.903Z,11.8
2022-11-05T13:20:06.846Z,12
2022-11-05T13:25:07.020Z,13
2022-11-05T13:30:06.623Z,13.7
2022-11-05T13:35:06.579Z,11.7
2022-11-05T13:40:06.318Z,13.2
2022-11-05T13:45:07.121Z,13.2
2022-11-05T13:50:06.795Z,13.1
2022-11-05T13:55:06.515Z,14.4
2022-11-05T14:00:06.629Z,16.9
2022-11-05T14:05:06.970Z,13.4
2022-11-05T14:10:06.737Z,11.8
2022-11-05T14:15:06.781Z,13.7
2022-11-05T14:20:06.664Z,14.3
2022-11-05T14:25:06.366Z,12.1
2022-11-05T14:30:06.506Z,13.9
2022-11-05T14:35:06.299Z,14.2
2022-11-05T14:40:07.129Z,12.6
2022-11-05T14:45:07.008Z,16
2022-11-05T14:50:06.264Z,17
2022-11-05T14:55:07.050Z,10.8
2022-11-05T15:00:06.398Z,12.9
2022-11-05T15:05:06.289Z,13.5
2022-11-05T15:10:06.947Z,10.6
2022-11-05T15:15:06.977Z,10.2
2022-11-05T15:20:07.094Z,11.2
2022-11-05T15:25:06.471Z,12.4
2022-11-05T15:30:06.991Z,9.7
2022-11-05T15:35:06.888Z,11.7
2022-11-05T15:40:06.541Z,16.5
2022-11-05T15:45:06.529Z,16
2022-11-05T15:50:06.575Z,17.5
2022-11-05T15:55:06.565Z,12.7
2022-11-05T16:00:06.657Z,11.1
2022-11-05T16:05:07.232Z,15.1
2022-11-05T16:10:06.518Z,16.1
2022-11-05T16:15:06.897Z,12.2
2022-11-05T16:20:06.854Z,12.7
2022-11-05T16:25:06.738Z,12.7
2022-11-05T16:30:06.554Z,10.2
2022-11-05T16:35:06.700Z,12.3
2022-11-05T16:40:06.730Z,13.3
2022-11-05T16:45:06.672Z,11.7
2022-11-05T16:50:06.496Z,14.1
2022-11-05T16:55:06.402Z,12.9
2022-11-05T17:00:06.336Z,12
2022-11-05T17:05:06.874Z,13.7
2022-11-05T17:10:06.936Z,17.5
2022-11-05T17:15:07.025Z,13.9
2022-11-05T17:20:07.062Z,13.8
2022-11-05T17:25:07.117Z,13.9
2022-11-05T17:30:07.098Z,10.8
2022-11-05T17:35:06.937Z,19.6
2022-11-05T17:40:06.642Z,26.8
2022-11-05T17:45:06.600Z,28.2
2022-11-05T17:50:06.641Z,29
2022-11-05T17:55:06.619Z,32.8
2022-11-05T18:00:06.601Z,29.8
2022-11-05T18:05:07.118Z,39.3
2022-11-05T18:10:07.039Z,43.5
2022-11-05T18:15:06.576Z,43.7
2022-11-05T18:20:06.578Z,29.3
2022-11-05T18:25:06.571Z,34.2
2022-11-05T18:30:06.407Z,31.6
2022-11-05T18:35:06.340Z,33.9
2022-11-05T18:40:06.351Z,26.9
2022-11-05T18:45:06.449Z,37.3
2022-11-05T18:50:06.503Z,35.3
2022-11-05T18:55:06.537Z,30.4
2022-11-05T19:00:06.607Z,24.8
2022-11-05T19:05:06.638Z,23.4
2022-11-05T19:10:06.905Z,19
2022-11-05T19:15:06.955Z,21.9
2022-11-05T19:20:06.911Z,21
2022-11-05T19:25:06.525Z,23.7
2022-11-05T19:30:06.403Z,23.8
2022-11-05T19:35:06.285Z,27.3
2022-11-05T19:40:06.466Z,25.2
2022-11-05T19:45:07.235Z,25.6
2022-11-05T19:50:06.581Z,29.8
2022-11-05T19:55:06.419Z,28.6
2022-11-05T20:00:06.502Z,28
2022-11-05T20:05:07.094Z,28.1
2022-11-05T20:10:06.838Z,26.1
2022-11-05T20:15:06.635Z,32
2022-11-05T20:20:06.967Z,34.7
2022-11-05T20:25:06.960Z,27.7
2022-11-05T20:30:06.871Z,32.3
2022-11-05T20:35:06.721Z,24.2
2022-11-05T20:40:06.747Z,29.4
2022-11-05T20:45:06.587Z,34.9
2022-11-05T20:50:06.504Z,37.1
2022-11-05T20:55:06.398Z,31.8
2022-11-05T21:00:06.542Z,28.2
2022-11-05T21:05:06.954Z,35.2
2022-11-05T21:10:07.172Z,35.9
2022-11-05T21:15:07.083Z,19
2022-11-05T21:20:07.048Z,29.1
2022-11-05T21:25:06.919Z,31.1
2022-11-05T21:30:06.475Z,35.1
2022-11-05T21:35:06.320Z,21.3
2022-11-05T21:40:06.346Z,26.7
2022-11-05T21:45:06.418Z,29.4
2022-11-05T21:50:06.268Z,28.2
2022-11-05T21:55:07.141Z,26.9
2022-11-05T22:00:07.305Z,30.2
2022-11-05T22:05:06.690Z,35.2
2022-11-05T22:10:06.617Z,26.2
2022-11-05T22:15:06.547Z,26.1
2022-11-05T22:20:06.678Z,21
2022-11-05T22:25:06.543Z,28.3
2022-11-05T22:30:06.461Z,27
2022-11-05T22:35:06.439Z,28.8
2022-11-05T22:40:06.318Z,28.7
2022-11-05T22:45:06.229Z,30.3
2022-11-05T22:50:06.519Z,36.6
2022-11-05T22:55:06.445Z,30.5
2022-11-05T23:00:06.746Z,37
2022-11-05T23:05:06.512Z,33.5
2022-11-05T23:10:06.529Z,30.7
2022-11-05T23:15:06.509Z,25.6
2022-11-05T23:20:06.361Z,27.6
2022-11-05T23:25:06.282Z,30.3
2022-11-05T23:30:06.312Z,31
2022-11-05T23:35:06.345Z,28.1
2022-11-05T23:40:06.275Z,30.5
2022-11-05T23:45:06.300Z,30.3
2022-11-05T23:50:06.313Z,33.5
2022-11-05T23:55:07.130Z,31.5
